MKJS/MBJ METAR and TAF weather

Enter ICAO airport designator
Station Type Date Time Source
MKJS METAR 2019/06/17 13:00 UTC NOAA

MKJS 171300Z 14006KT 9999 FEW022 30/22 Q1015


Station Type Date Time Source
MKJS Decoded METAR 2019/06/17 13:00 UTC NOAA

Montego Bay / Sangster, Jamaica (MKJS) 18-30N 077-55W 8M
Jun 17, 2019 - 09:00 AM EDT / 2019.06.17 1300 UTC
Wind: from the SE (140 degrees) at 7 MPH (6 KT):0
Visibility: greater than 7 mile(s):0
Sky conditions: mostly clear
Temperature: 86 F (30 C)
Heat index: 91.8 F (33.2 C):1
Dew Point: 71 F (22 C)
Relative Humidity: 62%
Pressure (altimeter): 29.97 in. Hg (1015 hPa)
ob: MKJS 171300Z 14006KT 9999 FEW022 30/22 Q1015
cycle: 13

Station Type Date Time Source
MKJS TAF 2019/06/17 12:23 UTC NOAA

TAF MKJS 171115Z 1712/1812 14005KT 9999 FEW022
BECMG 1713/1715 08019KT PROB40
TEMPO 1718/1722 SHRA BKN018 FEW022CB
BECMG 1802/1804 14007KT

Example: see airport list